Friday, November 24, 2017, 1:20 PM GMT
Back to Local

CWRK, Bancroft Automatic Weather Reporting System

Location: , , Canada Lat: 45.067
Local Time: 1:20 PM GMT (13:20 GMT) Lon: -77.867
Time Zone: GMT Elev: 1085 ft

Show me the last for .
Show Decoded

2017-11-24 13:00 METAR CWRK 241300Z AUTO 17003KT M01/M02 RMK AO1 SOG 01 8007 SLP099 T10051016 =
2017-11-24 12:00 METAR CWRK 241200Z AUTO 18002KT M00/M01 RMK AO1 SOG 01 6008 SLP104 T10021011 =
2017-11-24 11:00 METAR CWRK 241100Z AUTO 19003KT M00/M01 RMK AO1 SOG 01 7010 SLP104 T10031009 =
2017-11-24 10:00 METAR CWRK 241000Z AUTO 20003KT M00/M01 RMK AO1 SOG 01 8006 SLP106 T10021006 =
2017-11-24 09:00 METAR CWRK 240900Z AUTO 21002KT M00/M01 RMK AO1 SOG 01 0003 SLP112 T10021006 =
2017-11-24 08:00 METAR CWRK 240800Z AUTO 20003KT M00/M00 RMK AO1 SOG 01 3004 SLP114 T10021004 =
2017-11-24 07:00 METAR CWRK 240700Z AUTO 21004KT M00/M01 RMK AO1 SOG 01 3002 SLP112 T10011006 =
2017-11-24 06:00 METAR CWRK 240600Z AUTO 22005KT M00/M01 RMK AO1 SOG 01 0000 SLP110 T10031008 =
2017-11-24 05:00 METAR CWRK 240500Z AUTO 21005KT M00/M01 RMK AO1 SOG 01 1001 SLP111 T10041010 =
2017-11-24 04:00 METAR CWRK 240400Z AUTO 21004KT M00/M02 RMK AO1 SOG 01 5000 SLP112 T10031022 =
2017-11-24 03:00 METAR CWRK 240300Z AUTO 22005KT M00/M02 RMK AO1 SOG 01 6004 SLP111 T10041022 =
2017-11-24 02:00 METAR CWRK 240200Z AUTO 22005KT 01/M02 RMK AO1 SOG 01 8003 SLP112 T00051024 =
2017-11-24 01:00 METAR CWRK 240100Z AUTO 21005KT M00/M03 RMK AO1 SOG 01 8002 SLP113 T10041033 =
2017-11-24 00:00 METAR CWRK 240000Z AUTO 22005KT M00/M04 RMK AO1 SOG 01 5001 SLP116 T10021043 =
2017-11-23 23:00 METAR CWRK 232300Z AUTO 22005KT M00/M05 RMK AO1 SOG 02 6004 SLP116 T10021047 =
2017-11-23 22:00 METAR CWRK 232200Z AUTO 21004KT M01/M05 RMK AO1 SOG 01 6009 SLP116 T10051048 =
2017-11-23 21:00 METAR CWRK 232100Z AUTO 21004KT M00/M05 RMK AO1 SOG 01 6016 SLP118 T10031050 =
2017-11-23 20:00 METAR CWRK 232000Z AUTO 22005KT M00/M05 RMK AO1 SOG 01 6024 SLP121 T10021052 =
2017-11-23 19:00 METAR CWRK 231900Z AUTO 21005KT M00/M06 RMK AO1 SOG 01 6029 SLP127 T10031055 =
2017-11-23 18:00 METAR CWRK 231800Z AUTO 21004KT M01/M06 RMK AO1 SOG 01 8029 SLP136 T10101056 =
2017-11-23 17:00 METAR CWRK 231700Z AUTO 20005KT M02/M06 RMK AO1 SOG 01 8026 SLP147 T10201058 =
2017-11-23 16:00 METAR CWRK 231600Z AUTO 20005KT M03/M06 RMK AO1 SOG 01 8021 SLP158 T10301063 =
2017-11-23 15:00 METAR CWRK 231500Z AUTO 19004KT M04/M07 RMK AO1 SOG 01 8015 SLP168 T10421070 =
2017-11-23 14:00 METAR CWRK 231400Z AUTO 20005KT M05/M08 RMK AO1 SOG 01 6016 SLP174 T10451077 =

Support USWX by starting your Amazon purchase here.